createdAt,value
2023-12-14T00:01:32.504Z,9.29
2023-12-14T00:04:00.293Z,9.31
2023-12-14T00:06:28.033Z,9.36
2023-12-14T00:08:55.656Z,9.41
2023-12-14T00:11:23.304Z,9.43
2023-12-14T00:13:50.937Z,9.43
2023-12-14T00:16:18.540Z,9.45
2023-12-14T00:18:46.221Z,9.46
2023-12-14T00:21:13.833Z,9.46
2023-12-14T00:23:41.383Z,9.46
2023-12-14T00:26:09.257Z,9.45
2023-12-14T00:28:36.892Z,9.45
2023-12-14T00:31:04.678Z,9.45
2023-12-14T00:33:32.499Z,9.45
2023-12-14T00:36:00.186Z,9.44
2023-12-14T00:38:27.795Z,9.42
2023-12-14T00:40:55.514Z,9.40
2023-12-14T00:43:23.233Z,9.37
2023-12-14T00:45:50.821Z,9.34
2023-12-14T00:48:18.412Z,9.33
2023-12-14T00:50:46.065Z,9.34
2023-12-14T00:53:13.745Z,9.30
2023-12-14T00:55:41.504Z,9.31
2023-12-14T00:58:09.095Z,9.34
2023-12-14T01:00:36.666Z,9.35
2023-12-14T01:03:04.374Z,9.36
2023-12-14T01:05:32.062Z,9.35
2023-12-14T01:07:59.754Z,9.35
2023-12-14T01:10:27.363Z,9.33
2023-12-14T01:12:54.968Z,9.31
2023-12-14T01:15:22.531Z,9.31
2023-12-14T01:17:50.158Z,9.30
2023-12-14T01:20:17.903Z,9.27
2023-12-14T01:22:45.529Z,9.27
2023-12-14T01:25:13.892Z,9.28
2023-12-14T01:27:41.528Z,9.30
2023-12-14T01:30:09.674Z,9.27
2023-12-14T01:32:37.587Z,9.30
2023-12-14T01:35:05.912Z,9.32
2023-12-14T01:37:33.511Z,9.32
2023-12-14T01:40:01.140Z,9.33
2023-12-14T01:42:28.774Z,9.33
2023-12-14T01:44:56.439Z,9.31
2023-12-14T01:47:24.009Z,9.27
2023-12-14T01:49:51.696Z,9.26
2023-12-14T01:52:19.300Z,9.27
2023-12-14T01:54:46.990Z,9.26
2023-12-14T01:57:14.656Z,9.20
2023-12-14T01:59:42.260Z,9.14
2023-12-14T02:02:09.905Z,9.09
2023-12-14T02:04:38.654Z,9.09
2023-12-14T02:07:09.241Z,9.07
2023-12-14T02:09:36.816Z,9.07
2023-12-14T02:12:04.765Z,9.08
2023-12-14T02:14:32.407Z,9.05
2023-12-14T02:17:00.067Z,9.00
2023-12-14T02:19:27.681Z,8.95
2023-12-14T02:21:55.237Z,8.91
2023-12-14T02:24:22.879Z,8.89
2023-12-14T02:27:02.239Z,8.83
2023-12-14T02:29:32.199Z,8.80
2023-12-14T02:32:00.098Z,8.78
2023-12-14T02:34:27.839Z,8.81
2023-12-14T02:36:55.385Z,8.82
2023-12-14T02:39:22.929Z,8.85
2023-12-14T02:41:50.509Z,8.83
2023-12-14T02:44:18.073Z,8.82
2023-12-14T02:46:45.651Z,8.86
2023-12-14T02:49:13.311Z,8.91
2023-12-14T02:51:40.884Z,8.97
2023-12-14T02:54:09.103Z,8.98
2023-12-14T02:56:36.682Z,8.98
2023-12-14T02:59:04.288Z,9.02
2023-12-14T03:01:31.935Z,9.03
2023-12-14T03:03:59.575Z,9.03
2023-12-14T03:06:27.436Z,9.03
2023-12-14T03:08:54.976Z,9.04
2023-12-14T03:11:25.976Z,9.06
2023-12-14T03:13:53.597Z,9.09
2023-12-14T03:16:21.662Z,9.09
2023-12-14T03:18:53.498Z,9.13
2023-12-14T03:21:21.802Z,9.14
2023-12-14T03:23:49.584Z,9.16
2023-12-14T03:26:17.429Z,9.18
2023-12-14T03:28:45.034Z,9.19
2023-12-14T03:31:14.033Z,9.20
2023-12-14T03:33:43.624Z,9.20
2023-12-14T03:36:11.340Z,9.21
2023-12-14T03:38:38.975Z,9.21
2023-12-14T03:41:06.716Z,9.22
2023-12-14T03:43:34.323Z,9.23
2023-12-14T03:46:01.904Z,9.28
2023-12-14T03:48:29.639Z,9.27
2023-12-14T03:50:57.271Z,9.30
2023-12-14T03:53:24.819Z,9.28
2023-12-14T03:55:52.395Z,9.29
2023-12-14T03:58:20.087Z,9.31
2023-12-14T04:00:47.750Z,9.34
2023-12-14T04:03:15.351Z,9.30
2023-12-14T04:05:44.351Z,9.30
2023-12-14T04:08:12.344Z,9.32
2023-12-14T04:10:39.976Z,9.33
2023-12-14T04:13:07.648Z,9.34
2023-12-14T04:15:35.207Z,9.31
2023-12-14T04:18:03.420Z,9.30
2023-12-14T04:20:31.022Z,9.31
2023-12-14T04:22:58.598Z,9.34
2023-12-14T04:25:26.138Z,9.35
2023-12-14T04:27:53.687Z,9.34
2023-12-14T04:30:21.363Z,9.35
2023-12-14T04:32:49.080Z,9.37
2023-12-14T04:35:16.806Z,9.38
2023-12-14T04:37:44.518Z,9.37
2023-12-14T04:40:12.817Z,9.34
2023-12-14T04:42:40.363Z,9.31
2023-12-14T04:45:10.198Z,9.31
2023-12-14T04:47:37.915Z,9.30
2023-12-14T04:50:06.277Z,9.29
2023-12-14T04:52:34.276Z,9.30
2023-12-14T04:55:02.091Z,9.30
2023-12-14T04:57:29.650Z,9.33
2023-12-14T04:59:57.201Z,9.32
2023-12-14T05:02:25.056Z,9.32
2023-12-14T05:04:52.646Z,9.32
2023-12-14T05:07:20.270Z,9.30
2023-12-14T05:09:47.819Z,9.28
2023-12-14T05:12:15.393Z,9.28
2023-12-14T05:14:42.994Z,9.26
2023-12-14T05:17:10.645Z,9.22
2023-12-14T05:19:38.276Z,9.23
2023-12-14T05:22:05.905Z,9.22
2023-12-14T05:24:33.447Z,9.23
2023-12-14T05:27:01.000Z,9.26
2023-12-14T05:29:28.783Z,9.25
2023-12-14T05:31:56.370Z,9.21
2023-12-14T05:34:23.927Z,9.21
2023-12-14T05:36:51.485Z,9.16
2023-12-14T05:39:19.023Z,9.18
2023-12-14T05:41:46.582Z,9.18
2023-12-14T05:44:14.599Z,9.15
2023-12-14T05:46:42.420Z,9.16
2023-12-14T05:49:10.100Z,9.15
2023-12-14T05:51:38.979Z,9.20
2023-12-14T05:54:06.571Z,9.22
2023-12-14T05:56:35.148Z,9.23
2023-12-14T05:59:04.004Z,9.26
2023-12-14T06:01:32.198Z,9.27
2023-12-14T06:03:59.892Z,9.26
2023-12-14T06:06:27.496Z,9.19
2023-12-14T06:08:55.721Z,9.15
2023-12-14T06:11:23.601Z,9.13
2023-12-14T06:13:51.330Z,9.14
2023-12-14T06:16:19.004Z,9.17
2023-12-14T06:18:46.839Z,9.17
2023-12-14T06:21:14.753Z,9.17
2023-12-14T06:23:42.362Z,9.13
2023-12-14T06:26:09.990Z,9.15
2023-12-14T06:28:37.684Z,9.10
2023-12-14T06:31:05.504Z,9.11
2023-12-14T06:33:33.208Z,9.09
2023-12-14T06:36:05.927Z,9.13
2023-12-14T06:38:33.523Z,9.14
2023-12-14T06:41:03.342Z,9.11
2023-12-14T06:43:31.397Z,9.09
2023-12-14T06:45:58.939Z,9.06
2023-12-14T06:48:26.596Z,9.10
2023-12-14T06:50:56.013Z,9.13
2023-12-14T06:53:23.796Z,9.05
2023-12-14T06:55:51.392Z,9.06
2023-12-14T06:58:19.173Z,9.12
2023-12-14T07:00:46.781Z,9.16
2023-12-14T07:03:14.691Z,9.17
2023-12-14T07:05:44.155Z,9.18
2023-12-14T07:08:11.745Z,9.20
2023-12-14T07:10:39.397Z,9.22
2023-12-14T07:13:06.969Z,9.26
2023-12-14T07:15:35.062Z,9.30
2023-12-14T07:18:02.833Z,9.35
2023-12-14T07:20:30.549Z,9.38
2023-12-14T07:22:58.196Z,9.38
2023-12-14T07:25:25.749Z,9.37
2023-12-14T07:27:53.738Z,9.40
2023-12-14T07:30:21.360Z,9.41
2023-12-14T07:32:49.024Z,9.44
2023-12-14T07:35:16.672Z,9.48
2023-12-14T07:37:44.468Z,9.48
2023-12-14T07:40:12.436Z,9.46
2023-12-14T07:42:40.040Z,9.42
2023-12-14T07:45:10.481Z,9.38
2023-12-14T07:47:38.252Z,9.25
2023-12-14T07:50:06.775Z,9.29
2023-12-14T07:52:36.220Z,9.17
2023-12-14T07:55:04.951Z,9.24
2023-12-14T07:57:32.625Z,9.29
2023-12-14T08:00:01.230Z,9.32
2023-12-14T08:02:28.815Z,9.32
2023-12-14T08:04:56.515Z,9.23
2023-12-14T08:07:24.171Z,9.21
2023-12-14T08:09:51.711Z,9.22
2023-12-14T08:12:19.284Z,9.18
2023-12-14T08:14:46.844Z,9.20
2023-12-14T08:17:14.456Z,9.32
2023-12-14T08:19:42.124Z,9.35
2023-12-14T08:22:12.989Z,9.32
2023-12-14T08:24:41.370Z,9.39
2023-12-14T08:27:08.981Z,9.45
2023-12-14T08:29:36.615Z,9.46
2023-12-14T08:32:04.696Z,9.50
2023-12-14T08:34:32.638Z,9.50
2023-12-14T08:37:02.807Z,9.45
2023-12-14T08:39:30.357Z,9.48
2023-12-14T08:41:57.983Z,9.50
2023-12-14T08:44:25.577Z,9.55
2023-12-14T08:46:53.269Z,9.58
2023-12-14T08:49:20.882Z,9.60
2023-12-14T08:51:48.429Z,9.64
2023-12-14T08:54:15.987Z,9.71
2023-12-14T08:56:43.763Z,9.65
2023-12-14T08:59:11.414Z,9.60
2023-12-14T09:01:39.961Z,9.58
2023-12-14T09:04:07.729Z,9.63
2023-12-14T09:06:35.447Z,9.63
2023-12-14T09:09:03.728Z,9.61
2023-12-14T09:11:31.512Z,9.62
2023-12-14T09:13:59.117Z,9.64
2023-12-14T09:16:26.727Z,9.61
2023-12-14T09:18:54.362Z,9.60
2023-12-14T09:21:27.483Z,9.59
2023-12-14T09:24:01.119Z,9.66
2023-12-14T09:26:28.743Z,9.51
2023-12-14T09:28:56.398Z,9.52
2023-12-14T09:31:23.999Z,9.51
2023-12-14T09:33:51.821Z,9.51
2023-12-14T09:36:19.612Z,9.53
2023-12-14T09:38:48.562Z,9.57
2023-12-14T09:41:16.190Z,9.62
2023-12-14T09:43:45.023Z,9.63
2023-12-14T09:46:13.868Z,9.52
2023-12-14T09:48:41.798Z,9.59
2023-12-14T09:51:10.533Z,9.56
2023-12-14T09:53:38.099Z,9.65
2023-12-14T09:56:06.564Z,9.65
2023-12-14T09:58:34.664Z,9.51
2023-12-14T10:01:05.241Z,9.58
2023-12-14T10:03:33.889Z,9.52
2023-12-14T10:06:03.401Z,9.45
2023-12-14T10:08:31.308Z,9.46
2023-12-14T10:10:59.129Z,9.46
2023-12-14T10:13:40.540Z,9.52
2023-12-14T10:16:08.622Z,9.52
2023-12-14T10:18:36.944Z,9.49
2023-12-14T10:21:07.384Z,9.48
2023-12-14T10:23:36.177Z,9.37
2023-12-14T10:26:05.961Z,9.41
2023-12-14T10:28:33.932Z,9.58
2023-12-14T10:31:01.795Z,9.48
2023-12-14T10:33:29.456Z,9.51
2023-12-14T10:35:57.894Z,9.53
2023-12-14T10:38:28.653Z,9.26
2023-12-14T10:40:58.961Z,9.27
2023-12-14T10:43:45.220Z,9.48
2023-12-14T10:46:15.807Z,9.50
2023-12-14T10:48:46.315Z,9.56
2023-12-14T10:51:15.692Z,9.65
2023-12-14T10:53:50.221Z,9.71
2023-12-14T10:56:19.252Z,9.76
2023-12-14T10:59:01.449Z,9.58
2023-12-14T11:01:30.835Z,9.61
2023-12-14T11:04:00.798Z,9.53
2023-12-14T11:06:33.288Z,9.59
2023-12-14T11:09:11.609Z,9.45
2023-12-14T11:11:45.118Z,9.40
2023-12-14T11:14:14.513Z,9.49
2023-12-14T11:16:47.424Z,9.39
2023-12-14T11:19:26.629Z,9.32
2023-12-14T11:22:16.042Z,9.31
2023-12-14T11:24:51.514Z,9.27
2023-12-14T11:27:27.365Z,9.26
2023-12-14T11:29:55.589Z,9.07
2023-12-14T11:32:23.773Z,9.29
2023-12-14T11:34:51.526Z,9.35
2023-12-14T11:37:19.525Z,9.30
2023-12-14T11:39:50.747Z,9.30
2023-12-14T11:42:19.778Z,9.47
2023-12-14T11:44:47.711Z,9.48
2023-12-14T11:47:15.580Z,9.58
2023-12-14T11:49:43.460Z,9.64
2023-12-14T11:52:11.472Z,9.56
2023-12-14T11:54:39.117Z,9.50
2023-12-14T11:57:09.392Z,9.52
2023-12-14T11:59:37.994Z,9.42
2023-12-14T12:02:05.594Z,9.51
2023-12-14T12:04:33.290Z,9.61
2023-12-14T12:07:10.278Z,9.68
2023-12-14T12:09:43.751Z,9.73
2023-12-14T12:12:13.373Z,9.73
2023-12-14T12:14:42.955Z,9.73
2023-12-14T12:17:11.041Z,9.80
2023-12-14T12:19:39.294Z,9.83
2023-12-14T12:22:07.039Z,9.83
2023-12-14T12:24:35.380Z,9.89
2023-12-14T12:27:03.198Z,9.88
2023-12-14T12:29:31.446Z,9.84
2023-12-14T12:31:59.389Z,9.79
2023-12-14T12:34:27.323Z,9.75
2023-12-14T12:36:56.073Z,9.79
2023-12-14T12:39:23.703Z,9.74
2023-12-14T12:41:51.710Z,9.55
2023-12-14T12:44:19.572Z,9.58
2023-12-14T12:46:54.925Z,9.54
2023-12-14T12:49:29.802Z,9.51
2023-12-14T12:51:57.426Z,9.50
2023-12-14T12:54:25.084Z,9.52
2023-12-14T12:56:52.658Z,9.58
2023-12-14T12:59:20.300Z,9.58
2023-12-14T13:01:48.202Z,9.56
2023-12-14T13:04:23.079Z,9.62
2023-12-14T13:06:51.635Z,9.64
2023-12-14T13:09:22.705Z,9.59
2023-12-14T13:11:51.514Z,9.52
2023-12-14T13:14:19.315Z,9.32
2023-12-14T13:16:48.794Z,9.10
2023-12-14T13:19:16.791Z,8.96
2023-12-14T13:21:44.385Z,9.12
2023-12-14T13:24:12.033Z,9.09
2023-12-14T13:26:40.455Z,9.12
2023-12-14T13:29:08.226Z,9.21
2023-12-14T13:31:36.058Z,9.29
2023-12-14T13:34:04.631Z,9.31
2023-12-14T13:36:32.373Z,9.37
2023-12-14T13:39:00.386Z,9.40
2023-12-14T13:41:28.001Z,9.40
2023-12-14T13:43:55.590Z,9.30
2023-12-14T13:46:24.886Z,9.37
2023-12-14T13:48:54.226Z,9.43
2023-12-14T13:51:22.072Z,9.47
2023-12-14T13:53:49.692Z,9.46
2023-12-14T13:56:17.411Z,9.45
2023-12-14T13:58:45.480Z,9.47
2023-12-14T14:01:13.101Z,9.48
2023-12-14T14:03:43.231Z,9.39
2023-12-14T14:06:10.982Z,9.24
2023-12-14T14:08:38.601Z,9.12
2023-12-14T14:11:08.609Z,9.15
2023-12-14T14:13:37.581Z,9.13
2023-12-14T14:16:06.355Z,9.20
2023-12-14T14:18:34.277Z,9.15
2023-12-14T14:21:02.511Z,9.14
2023-12-14T14:23:32.264Z,9.19
2023-12-14T14:26:00.444Z,9.22
2023-12-14T14:28:28.416Z,9.27
2023-12-14T14:30:56.583Z,9.27
2023-12-14T14:33:24.593Z,9.16
2023-12-14T14:35:52.361Z,9.21
2023-12-14T14:38:20.172Z,9.25
2023-12-14T14:40:47.954Z,9.32
2023-12-14T14:43:15.715Z,9.25
2023-12-14T14:45:45.030Z,9.25
2023-12-14T14:48:12.705Z,9.26
2023-12-14T14:50:40.385Z,9.22
2023-12-14T14:53:08.148Z,9.25
2023-12-14T14:55:35.932Z,9.18
2023-12-14T14:58:03.716Z,9.17
2023-12-14T15:00:33.422Z,9.09
2023-12-14T15:03:04.340Z,9.15
2023-12-14T15:05:32.955Z,9.09
2023-12-14T15:08:00.695Z,8.99
2023-12-14T15:10:28.315Z,8.94
2023-12-14T15:12:55.871Z,8.91
2023-12-14T15:15:23.466Z,8.88
2023-12-14T15:17:51.010Z,8.94
2023-12-14T15:20:19.107Z,9.00
2023-12-14T15:22:46.751Z,9.02
2023-12-14T15:25:16.541Z,9.07
2023-12-14T15:27:44.200Z,9.13
2023-12-14T15:30:12.861Z,9.16
2023-12-14T15:32:40.853Z,9.22
2023-12-14T15:35:09.110Z,9.22
2023-12-14T15:37:36.683Z,9.22
2023-12-14T15:40:05.597Z,9.23
2023-12-14T15:42:33.434Z,9.17
2023-12-14T15:45:01.186Z,9.15
2023-12-14T15:47:28.918Z,9.12
2023-12-14T15:49:56.627Z,9.12
2023-12-14T15:52:24.257Z,9.11
2023-12-14T15:54:51.852Z,9.13
2023-12-14T15:57:19.406Z,9.14
2023-12-14T15:59:46.979Z,9.18
2023-12-14T16:02:14.606Z,9.22
2023-12-14T16:04:42.256Z,9.26
2023-12-14T16:07:09.808Z,9.25
2023-12-14T16:09:37.446Z,9.29
2023-12-14T16:12:07.176Z,9.31
2023-12-14T16:14:34.767Z,9.29
2023-12-14T16:17:02.357Z,9.31
2023-12-14T16:19:30.044Z,9.34
2023-12-14T16:21:57.580Z,9.38
2023-12-14T16:24:36.643Z,9.43
2023-12-14T16:27:08.454Z,9.42
2023-12-14T16:29:37.997Z,9.38
2023-12-14T16:32:07.469Z,9.27
2023-12-14T16:34:35.864Z,9.14
2023-12-14T16:37:04.599Z,9.06
2023-12-14T16:39:33.100Z,8.95
2023-12-14T16:42:00.690Z,8.90
2023-12-14T16:44:28.300Z,8.89
2023-12-14T16:46:56.058Z,8.88
2023-12-14T16:49:23.646Z,8.85
2023-12-14T16:51:51.210Z,8.81
2023-12-14T16:54:18.786Z,8.79
2023-12-14T16:56:46.371Z,8.76
2023-12-14T16:59:15.620Z,8.70
2023-12-14T17:01:43.626Z,8.70
2023-12-14T17:04:11.214Z,8.77
2023-12-14T17:06:38.772Z,8.76
2023-12-14T17:09:06.381Z,8.74
2023-12-14T17:11:33.982Z,8.78
2023-12-14T17:14:01.585Z,8.82
2023-12-14T17:16:29.256Z,8.82
2023-12-14T17:18:56.833Z,8.83
2023-12-14T17:21:27.544Z,8.88
2023-12-14T17:23:56.687Z,8.90
2023-12-14T17:26:26.907Z,8.92
2023-12-14T17:28:57.149Z,8.89
2023-12-14T17:31:26.308Z,8.89
2023-12-14T17:33:54.341Z,8.87
2023-12-14T17:36:21.981Z,8.83
2023-12-14T17:38:51.140Z,8.80
2023-12-14T17:41:18.910Z,8.72
2023-12-14T17:43:46.537Z,8.75
2023-12-14T17:46:19.299Z,8.74
2023-12-14T17:48:47.015Z,8.78
2023-12-14T17:51:14.572Z,8.79
2023-12-14T17:53:44.554Z,8.71
2023-12-14T17:56:12.426Z,8.55
2023-12-14T17:58:42.110Z,8.54
2023-12-14T18:01:09.825Z,8.47
2023-12-14T18:03:37.457Z,8.51
2023-12-14T18:06:05.629Z,8.51
2023-12-14T18:08:33.228Z,8.36
2023-12-14T18:11:00.878Z,8.41
2023-12-14T18:13:28.542Z,8.30
2023-12-14T18:15:56.192Z,8.07
2023-12-14T18:18:24.039Z,8.01
2023-12-14T18:20:51.741Z,8.03
2023-12-14T18:23:19.346Z,8.11
2023-12-14T18:25:50.047Z,7.95
2023-12-14T18:28:19.143Z,7.82
2023-12-14T18:30:47.289Z,7.90
2023-12-14T18:33:15.496Z,7.90
2023-12-14T18:35:43.139Z,7.92
2023-12-14T18:38:10.961Z,7.90
2023-12-14T18:40:38.499Z,7.89
2023-12-14T18:43:06.079Z,7.86
2023-12-14T18:45:33.983Z,7.91
2023-12-14T18:48:01.693Z,7.89
2023-12-14T18:50:29.409Z,7.78
2023-12-14T18:52:58.809Z,7.83
2023-12-14T18:55:26.685Z,7.74
2023-12-14T18:57:55.274Z,7.85
2023-12-14T19:00:22.955Z,7.76
2023-12-14T19:02:50.536Z,7.83
2023-12-14T19:05:22.039Z,7.84
2023-12-14T19:07:49.698Z,7.80
2023-12-14T19:10:20.252Z,7.85
2023-12-14T19:12:48.944Z,7.84
2023-12-14T19:15:17.013Z,7.80
2023-12-14T19:17:44.792Z,7.76
2023-12-14T19:20:13.601Z,7.83
2023-12-14T19:22:41.482Z,7.78
2023-12-14T19:25:11.680Z,7.70
2023-12-14T19:27:40.502Z,7.50
2023-12-14T19:30:13.802Z,7.58
2023-12-14T19:32:42.368Z,7.45
2023-12-14T19:35:10.163Z,7.46
2023-12-14T19:37:37.985Z,7.47
2023-12-14T19:40:06.695Z,7.48
2023-12-14T19:42:35.671Z,7.51
2023-12-14T19:45:03.944Z,7.49
2023-12-14T19:47:32.853Z,7.59
2023-12-14T19:50:01.345Z,7.64
2023-12-14T19:52:29.571Z,7.64
2023-12-14T19:54:58.610Z,7.60
2023-12-14T19:57:26.311Z,7.64
2023-12-14T19:59:53.913Z,7.61
2023-12-14T20:02:21.883Z,7.59
2023-12-14T20:04:49.507Z,7.63
2023-12-14T20:07:17.114Z,7.64
2023-12-14T20:09:54.199Z,7.73
2023-12-14T20:12:25.565Z,7.75
2023-12-14T20:14:53.126Z,7.82
2023-12-14T20:17:20.823Z,7.70
2023-12-14T20:19:48.865Z,7.74
2023-12-14T20:22:16.475Z,7.79
2023-12-14T20:24:45.623Z,7.85
2023-12-14T20:27:13.236Z,7.84
2023-12-14T20:29:40.785Z,7.81
2023-12-14T20:32:08.413Z,7.78
2023-12-14T20:34:35.996Z,7.72
2023-12-14T20:37:03.612Z,7.69
2023-12-14T20:39:31.178Z,7.73
2023-12-14T20:41:58.740Z,7.66
2023-12-14T20:44:26.367Z,7.64
2023-12-14T20:46:53.935Z,7.54
2023-12-14T20:49:23.439Z,7.53
2023-12-14T20:51:51.069Z,7.42
2023-12-14T20:54:18.635Z,7.39
2023-12-14T20:56:46.182Z,7.31
2023-12-14T20:59:14.769Z,7.40
2023-12-14T21:01:42.764Z,7.28
2023-12-14T21:04:10.374Z,7.24
2023-12-14T21:06:38.035Z,7.30
2023-12-14T21:09:06.450Z,7.20
2023-12-14T21:11:34.045Z,7.20
2023-12-14T21:14:01.687Z,7.26
2023-12-14T21:16:29.334Z,7.32
2023-12-14T21:18:57.062Z,7.35
2023-12-14T21:21:24.991Z,7.28
2023-12-14T21:23:52.595Z,7.37
2023-12-14T21:26:21.886Z,7.42
2023-12-14T21:28:49.582Z,7.36
2023-12-14T21:31:17.267Z,7.41
2023-12-14T21:33:45.052Z,7.47
2023-12-14T21:36:13.216Z,7.47
2023-12-14T21:38:40.800Z,7.38
2023-12-14T21:41:08.442Z,7.08
2023-12-14T21:43:36.019Z,7.08
2023-12-14T21:46:04.094Z,7.02
2023-12-14T21:48:31.772Z,7.06
2023-12-14T21:50:59.519Z,7.10
2023-12-14T21:53:27.246Z,7.00
2023-12-14T21:55:54.955Z,6.92
2023-12-14T21:58:22.510Z,6.87
2023-12-14T22:00:50.086Z,6.85
2023-12-14T22:03:17.973Z,6.83
2023-12-14T22:05:45.798Z,6.78
2023-12-14T22:08:13.423Z,6.88
2023-12-14T22:10:40.997Z,6.93
2023-12-14T22:13:08.549Z,6.79
2023-12-14T22:15:36.117Z,6.78
2023-12-14T22:18:03.886Z,6.82
2023-12-14T22:20:31.522Z,6.84
2023-12-14T22:22:59.127Z,6.86
2023-12-14T22:25:26.688Z,6.88
2023-12-14T22:27:54.270Z,6.90
2023-12-14T22:30:21.843Z,6.89
2023-12-14T22:32:50.192Z,6.85
2023-12-14T22:35:17.830Z,6.72
2023-12-14T22:37:45.456Z,6.73
2023-12-14T22:40:13.685Z,6.77
2023-12-14T22:42:41.277Z,6.79
2023-12-14T22:45:09.051Z,6.86
2023-12-14T22:47:36.919Z,6.80
2023-12-14T22:50:06.657Z,6.76
2023-12-14T22:52:34.508Z,6.78
2023-12-14T22:55:02.151Z,6.77
2023-12-14T22:57:31.469Z,6.83
2023-12-14T22:59:59.049Z,6.87
2023-12-14T23:02:28.094Z,6.82
2023-12-14T23:04:56.024Z,6.84
2023-12-14T23:07:23.648Z,6.84
2023-12-14T23:09:51.211Z,6.86
2023-12-14T23:12:20.638Z,6.86
2023-12-14T23:14:49.183Z,6.78
2023-12-14T23:17:16.836Z,6.79
2023-12-14T23:19:44.459Z,6.79
2023-12-14T23:22:12.040Z,6.75
2023-12-14T23:24:39.609Z,6.65
2023-12-14T23:27:07.234Z,6.70
2023-12-14T23:29:34.772Z,6.76
2023-12-14T23:32:02.469Z,6.70
2023-12-14T23:34:30.016Z,6.66
2023-12-14T23:36:57.560Z,6.58
2023-12-14T23:39:25.137Z,6.61
2023-12-14T23:42:11.245Z,6.59
2023-12-14T23:44:39.905Z,6.60
2023-12-14T23:47:07.787Z,6.42
2023-12-14T23:49:35.354Z,6.32
2023-12-14T23:52:02.978Z,6.24
2023-12-14T23:54:30.692Z,6.26
2023-12-14T23:56:58.251Z,6.32
2023-12-14T23:59:25.866Z,6.40
